createdAt,value
2023-03-11T00:02:42.818Z,525.00
2023-03-11T00:06:42.799Z,522.00
2023-03-11T00:10:42.780Z,526.00
2023-03-11T00:14:42.724Z,520.00
2023-03-11T00:18:42.685Z,526.00
2023-03-11T00:22:42.666Z,524.00
2023-03-11T00:26:42.614Z,540.00
2023-03-11T00:30:42.757Z,517.00
2023-03-11T00:34:42.536Z,526.00
2023-03-11T00:38:42.529Z,524.00
2023-03-11T00:42:42.475Z,528.00
2023-03-11T00:46:42.441Z,550.00
2023-03-11T00:50:42.652Z,520.00
2023-03-11T00:54:42.795Z,547.00
2023-03-11T00:58:42.752Z,555.00
2023-03-11T01:02:42.739Z,550.00
2023-03-11T01:06:45.587Z,549.00
2023-03-11T01:10:42.648Z,551.00
2023-03-11T01:14:42.611Z,540.00
2023-03-11T01:18:42.574Z,564.00
2023-03-11T01:22:42.561Z,583.00
2023-03-11T01:26:42.512Z,564.00
2023-03-11T01:30:42.517Z,529.00
2023-03-11T01:34:42.408Z,552.00
2023-03-11T01:38:42.382Z,557.00
2023-03-11T01:42:42.361Z,549.00
2023-03-11T01:46:42.343Z,580.00
2023-03-11T01:50:42.492Z,546.00
2023-03-11T01:54:42.676Z,551.00
2023-03-11T01:58:42.806Z,527.00
2023-03-11T02:02:42.871Z,573.00
2023-03-11T02:06:42.758Z,546.00
2023-03-11T02:10:42.729Z,572.00
2023-03-11T02:14:42.670Z,570.00
2023-03-11T02:18:42.650Z,563.00
2023-03-11T02:22:42.611Z,543.00
2023-03-11T02:26:42.579Z,557.00
2023-03-11T02:30:42.578Z,538.00
2023-03-11T02:34:42.486Z,548.00
2023-03-11T02:38:42.463Z,539.00
2023-03-11T02:42:42.453Z,546.00
2023-03-11T02:46:42.461Z,548.00
2023-03-11T02:50:42.613Z,523.00
2023-03-11T02:54:42.587Z,554.00
2023-03-11T02:58:42.552Z,541.00
2023-03-11T03:02:42.510Z,530.00
2023-03-11T03:06:42.461Z,539.00
2023-03-11T03:10:42.432Z,543.00
2023-03-11T03:14:42.402Z,525.00
2023-03-11T03:18:42.363Z,530.00
2023-03-11T03:22:42.348Z,534.00
2023-03-11T03:26:42.310Z,534.00
2023-03-11T03:30:42.237Z,506.00
2023-03-11T03:34:42.219Z,548.00
2023-03-11T03:38:42.189Z,538.00
2023-03-11T03:42:42.122Z,553.00
2023-03-11T03:46:42.186Z,530.00
2023-03-11T03:50:42.265Z,511.00
2023-03-11T03:54:42.432Z,515.00
2023-03-11T03:58:42.561Z,525.00
2023-03-11T04:02:42.532Z,535.00
2023-03-11T04:06:42.485Z,539.00
2023-03-11T04:10:42.444Z,525.00
2023-03-11T04:14:42.411Z,529.00
2023-03-11T04:18:42.375Z,526.00
2023-03-11T04:22:42.347Z,539.00
2023-03-11T04:26:42.343Z,525.00
2023-03-11T04:30:42.291Z,530.00
2023-03-11T04:34:42.262Z,546.00
2023-03-11T04:38:42.172Z,539.00
2023-03-11T04:42:42.349Z,522.00
2023-03-11T04:46:42.553Z,517.00
2023-03-11T04:50:42.729Z,527.00
2023-03-11T04:54:42.966Z,528.00
2023-03-11T04:58:42.911Z,523.00
2023-03-11T05:02:42.871Z,528.00
2023-03-11T05:06:42.810Z,530.00
2023-03-11T05:10:42.780Z,507.00
2023-03-11T05:14:42.741Z,529.00
2023-03-11T05:18:42.724Z,507.00
2023-03-11T05:22:42.721Z,521.00
2023-03-11T05:26:42.633Z,526.00
2023-03-11T05:30:42.597Z,521.00
2023-03-11T05:34:42.568Z,516.00
2023-03-11T05:38:42.565Z,520.00
2023-03-11T05:42:42.524Z,516.00
2023-03-11T05:46:42.566Z,523.00
2023-03-11T05:50:42.420Z,519.00
2023-03-11T05:54:42.387Z,522.00
2023-03-11T05:58:42.430Z,523.00
2023-03-11T06:02:42.325Z,508.00
2023-03-11T06:06:42.277Z,506.00
2023-03-11T06:10:42.230Z,524.00
2023-03-11T06:14:42.210Z,518.00
2023-03-11T06:18:42.171Z,528.00
2023-03-11T06:22:42.546Z,526.00
2023-03-11T06:26:42.164Z,507.00
2023-03-11T06:30:42.033Z,535.00
2023-03-11T06:34:42.015Z,519.00
2023-03-11T06:38:41.985Z,524.00
2023-03-11T06:42:41.933Z,528.00
2023-03-11T06:46:41.939Z,528.00
2023-03-11T06:50:41.878Z,533.00
2023-03-11T06:54:41.963Z,517.00
2023-03-11T06:58:42.012Z,519.00
2023-03-11T07:02:42.102Z,506.00
2023-03-11T07:06:42.193Z,540.00
2023-03-11T07:10:42.301Z,547.00
2023-03-11T07:14:42.489Z,553.00
2023-03-11T07:18:42.666Z,563.00
2023-03-11T07:22:42.836Z,560.00
2023-03-11T07:26:44.505Z,561.00
2023-03-11T07:30:43.097Z,607.00
2023-03-11T07:34:43.210Z,593.00
2023-03-11T07:38:43.357Z,583.00
2023-03-11T07:42:43.531Z,584.00
2023-03-11T07:46:43.706Z,590.00
2023-03-11T07:50:43.683Z,607.00
2023-03-11T07:54:43.624Z,600.00
2023-03-11T07:58:45.607Z,599.00
2023-03-11T08:02:43.655Z,601.00
2023-03-11T08:06:43.783Z,593.00
2023-03-11T08:10:43.758Z,604.00
2023-03-11T08:14:43.703Z,629.00
2023-03-11T08:18:43.671Z,643.00
2023-03-11T08:22:57.236Z,640.00
2023-03-11T08:26:44.589Z,649.00
2023-03-11T08:30:43.550Z,649.00
2023-03-11T08:34:43.694Z,659.00
2023-03-11T08:38:43.913Z,650.00
2023-03-11T08:42:44.096Z,656.00
2023-03-11T08:46:44.387Z,661.00
2023-03-11T08:50:54.032Z,656.00
2023-03-11T08:54:45.503Z,658.00
2023-03-11T08:58:44.458Z,658.00
2023-03-11T09:02:44.565Z,651.00
2023-03-11T09:06:44.721Z,655.00
2023-03-11T09:10:44.939Z,650.00
2023-03-11T09:14:45.099Z,649.00
2023-03-11T09:18:45.344Z,674.00
2023-03-11T09:22:45.504Z,645.00
2023-03-11T09:26:45.687Z,654.00
2023-03-11T09:30:45.801Z,645.00
2023-03-11T09:34:45.958Z,653.00
2023-03-11T09:38:46.143Z,652.00
2023-03-11T09:42:46.323Z,652.00
2023-03-11T09:46:46.506Z,649.00
2023-03-11T09:50:46.610Z,651.00
2023-03-11T09:54:46.756Z,643.00
2023-03-11T09:58:46.875Z,639.00
2023-03-11T10:02:47.085Z,622.00
2023-03-11T10:06:47.037Z,619.00
2023-03-11T10:10:47.090Z,625.00
2023-03-11T10:14:47.153Z,624.00
2023-03-11T10:18:47.139Z,632.00
2023-03-11T10:22:47.144Z,634.00
2023-03-11T10:26:47.366Z,636.00
2023-03-11T10:30:47.536Z,644.00
2023-03-11T10:34:47.737Z,646.00
2023-03-11T10:38:47.945Z,652.00
2023-03-11T10:42:48.123Z,662.00
2023-03-11T10:46:48.339Z,670.00
2023-03-11T10:50:48.511Z,679.00
2023-03-11T10:54:48.706Z,676.00
2023-03-11T10:58:48.906Z,668.00
2023-03-11T11:02:49.076Z,691.00
2023-03-11T11:06:49.275Z,681.00
2023-03-11T11:10:49.452Z,695.00
2023-03-11T11:14:49.591Z,717.00
2023-03-11T11:18:49.705Z,728.00
2023-03-11T11:22:49.865Z,737.00
2023-03-11T11:26:49.983Z,759.00
2023-03-11T11:30:50.071Z,754.00
2023-03-11T11:34:50.097Z,759.00
2023-03-11T11:38:50.165Z,752.00
2023-03-11T11:42:50.191Z,780.00
2023-03-11T11:46:50.221Z,758.00
2023-03-11T11:50:50.445Z,755.00
2023-03-11T11:54:50.417Z,765.00
2023-03-11T11:58:50.394Z,762.00
2023-03-11T12:02:50.371Z,784.00
2023-03-11T12:06:50.300Z,781.00
2023-03-11T12:10:50.285Z,775.00
2023-03-11T12:14:50.229Z,775.00
2023-03-11T12:18:50.193Z,769.00
2023-03-11T12:22:50.149Z,770.00
2023-03-11T12:26:50.159Z,765.00
2023-03-11T12:30:50.203Z,772.00
2023-03-11T12:34:50.051Z,761.00
2023-03-11T12:38:50.017Z,757.00
2023-03-11T12:42:49.976Z,776.00
2023-03-11T12:46:49.994Z,746.00
2023-03-11T12:50:49.899Z,745.00
2023-03-11T12:54:49.880Z,737.00
2023-03-11T12:58:49.819Z,736.00
2023-03-11T13:02:49.857Z,743.00
2023-03-11T13:06:49.762Z,729.00
2023-03-11T13:10:49.727Z,735.00
2023-03-11T13:14:49.660Z,726.00
2023-03-11T13:18:49.632Z,724.00
2023-03-11T13:22:49.608Z,713.00
2023-03-11T13:26:49.557Z,704.00
2023-03-11T13:30:49.548Z,679.00
2023-03-11T13:34:49.517Z,678.00
2023-03-11T13:38:49.453Z,658.00
2023-03-11T13:42:49.429Z,648.00
2023-03-11T13:46:49.477Z,658.00
2023-03-11T13:50:49.528Z,644.00
2023-03-11T13:54:49.548Z,639.00
2023-03-11T13:58:49.562Z,625.00
2023-03-11T14:02:49.596Z,623.00
2023-03-11T14:06:49.658Z,609.00
2023-03-11T14:10:49.705Z,606.00
2023-03-11T14:14:49.755Z,606.00
2023-03-11T14:18:49.824Z,606.00
2023-03-11T14:22:49.909Z,596.00
2023-03-11T14:26:50.021Z,594.00
2023-03-11T14:30:50.029Z,587.00
2023-03-11T14:34:50.153Z,592.00
2023-03-11T14:38:50.284Z,587.00
2023-03-11T14:42:50.397Z,593.00
2023-03-11T14:46:50.503Z,587.00
2023-03-11T14:50:50.627Z,592.00
2023-03-11T14:54:50.789Z,587.00
2023-03-11T14:59:01.655Z,588.00
2023-03-11T15:02:51.890Z,589.00
2023-03-11T15:06:50.856Z,594.00
2023-03-11T15:10:50.933Z,593.00
2023-03-11T15:14:51.202Z,589.00
2023-03-11T15:18:51.306Z,583.00
2023-03-11T15:22:51.481Z,579.00
2023-03-11T15:26:51.682Z,563.00
2023-03-11T15:30:51.932Z,550.00
2023-03-11T15:34:52.096Z,555.00
2023-03-11T15:38:52.308Z,554.00
2023-03-11T15:42:52.234Z,537.00
2023-03-11T15:46:52.211Z,544.00
2023-03-11T15:50:53.654Z,558.00
2023-03-11T15:54:55.972Z,559.00
2023-03-11T15:58:52.127Z,555.00
2023-03-11T16:02:52.108Z,555.00
2023-03-11T16:07:06.877Z,550.00
2023-03-11T16:10:53.091Z,539.00
2023-03-11T16:14:52.040Z,533.00
2023-03-11T16:18:52.146Z,532.00
2023-03-11T16:22:52.330Z,517.00
2023-03-11T16:26:52.317Z,501.00
2023-03-11T16:30:52.395Z,501.00
2023-03-11T16:34:52.394Z,512.00
2023-03-11T16:38:52.375Z,505.00
2023-03-11T16:42:52.445Z,500.00
2023-03-11T16:46:52.363Z,503.00
2023-03-11T16:50:52.402Z,517.00
2023-03-11T16:54:52.389Z,515.00
2023-03-11T16:58:52.481Z,518.00
2023-03-11T17:02:52.465Z,518.00
2023-03-11T17:06:52.500Z,515.00
2023-03-11T17:10:52.563Z,520.00
2023-03-11T17:14:52.569Z,520.00
2023-03-11T17:18:52.642Z,515.00
2023-03-11T17:22:52.718Z,520.00
2023-03-11T17:26:52.867Z,520.00
2023-03-11T17:30:52.897Z,518.00
2023-03-11T17:34:52.940Z,513.00
2023-03-11T17:38:53.053Z,510.00
2023-03-11T17:42:53.316Z,518.00
2023-03-11T17:46:53.388Z,511.00
2023-03-11T17:50:53.349Z,516.00
2023-03-11T17:54:53.430Z,515.00
2023-03-11T17:58:53.415Z,509.00
2023-03-11T18:02:53.391Z,519.00
2023-03-11T18:06:53.417Z,513.00
2023-03-11T18:10:53.339Z,509.00
2023-03-11T18:14:53.340Z,514.00
2023-03-11T18:18:53.253Z,510.00
2023-03-11T18:22:53.174Z,508.00
2023-03-11T18:26:53.135Z,500.00
2023-03-11T18:30:53.113Z,502.00
2023-03-11T18:34:53.109Z,500.00
2023-03-11T18:38:53.048Z,503.00
2023-03-11T18:42:53.026Z,515.00
2023-03-11T18:46:53.068Z,508.00
2023-03-11T18:50:53.002Z,500.00
2023-03-11T18:54:53.040Z,509.00
2023-03-11T18:58:53.165Z,509.00
2023-03-11T19:02:53.440Z,531.00
2023-03-11T19:06:53.477Z,523.00
2023-03-11T19:10:53.672Z,512.00
2023-03-11T19:14:53.786Z,516.00
2023-03-11T19:18:53.989Z,531.00
2023-03-11T19:22:54.196Z,530.00
2023-03-11T19:26:55.905Z,541.00
2023-03-11T19:30:54.581Z,523.00
2023-03-11T19:34:54.727Z,532.00
2023-03-11T19:38:54.881Z,533.00
2023-03-11T19:42:55.121Z,498.00
2023-03-11T19:46:55.309Z,526.00
2023-03-11T19:50:55.423Z,549.00
2023-03-11T19:54:55.638Z,517.00
2023-03-11T19:58:55.780Z,512.00
2023-03-11T20:02:55.999Z,513.00
2023-03-11T20:06:56.190Z,510.00
2023-03-11T20:10:56.164Z,507.00
2023-03-11T20:14:56.103Z,512.00
2023-03-11T20:18:56.068Z,522.00
2023-03-11T20:22:56.070Z,525.00
2023-03-11T20:26:56.014Z,518.00
2023-03-11T20:30:56.057Z,509.00
2023-03-11T20:34:55.928Z,508.00
2023-03-11T20:38:55.889Z,509.00
2023-03-11T20:42:55.906Z,520.00
2023-03-11T20:46:55.888Z,520.00
2023-03-11T20:50:55.840Z,522.00
2023-03-11T20:54:55.773Z,519.00
2023-03-11T20:58:56.016Z,503.00
2023-03-11T21:02:56.151Z,505.00
2023-03-11T21:06:56.426Z,508.00
2023-03-11T21:10:56.470Z,511.00
2023-03-11T21:14:56.795Z,503.00
2023-03-11T21:18:56.875Z,508.00
2023-03-11T21:22:57.027Z,504.00
2023-03-11T21:26:57.268Z,512.00
2023-03-11T21:30:57.497Z,505.00
2023-03-11T21:34:57.595Z,515.00
2023-03-11T21:38:57.813Z,506.00
2023-03-11T21:42:57.932Z,509.00
2023-03-11T21:46:58.612Z,523.00
2023-03-11T21:50:58.417Z,507.00
2023-03-11T21:54:58.549Z,521.00
2023-03-11T21:58:58.737Z,512.00
2023-03-11T22:02:58.822Z,511.00
2023-03-11T22:06:59.038Z,532.00
2023-03-11T22:10:59.227Z,503.00
2023-03-11T22:14:59.500Z,506.00
2023-03-11T22:18:59.626Z,500.00
2023-03-11T22:22:59.794Z,510.00
2023-03-11T22:27:00.467Z,500.00
2023-03-11T22:31:00.155Z,503.00
2023-03-11T22:35:00.336Z,512.00
2023-03-11T22:39:00.512Z,508.00
2023-03-11T22:43:00.511Z,507.00
2023-03-11T22:47:00.467Z,513.00
2023-03-11T22:51:00.433Z,513.00
2023-03-11T22:55:00.425Z,507.00
2023-03-11T22:59:00.335Z,508.00
2023-03-11T23:03:00.383Z,501.00
2023-03-11T23:07:00.281Z,511.00
2023-03-11T23:11:00.241Z,501.00
2023-03-11T23:15:00.206Z,507.00
2023-03-11T23:19:00.182Z,510.00
2023-03-11T23:23:00.122Z,509.00
2023-03-11T23:27:00.166Z,505.00
2023-03-11T23:31:00.274Z,505.00
2023-03-11T23:35:00.099Z,507.00
2023-03-11T23:39:00.048Z,512.00
2023-03-11T23:43:00.031Z,508.00
2023-03-11T23:46:59.993Z,507.00
2023-03-11T23:50:59.940Z,516.00
2023-03-11T23:54:59.922Z,508.00
2023-03-11T23:58:59.852Z,519.00
